Time,TemperatureF,DewpointF,PressureIn,WindDirection,WindDirectionDegrees,WindSpeedMPH,WindSpeedGustMPH,Humidity,HourlyPrecipIn,Conditions,Clouds,dailyrainin,SoftwareType,DateUTC
2013-03-22 00:13:00,41.5,35.0,29.94,West,267,0.0,0.0,78,0.00,,,0.00,weatherlink.com 1.10,2013-03-22 04:13:00,
2013-03-22 00:28:00,41.3,36.0,29.94,West,267,0.0,1.0,81,0.00,,,0.00,weatherlink.com 1.10,2013-03-22 04:28:00,
2013-03-22 00:43:00,41.6,37.0,29.94,West,267,0.0,0.0,83,0.00,,,0.00,weatherlink.com 1.10,2013-03-22 04:43:00,
2013-03-22 00:58:00,41.9,37.0,29.94,West,267,0.0,0.0,83,0.00,,,0.00,weatherlink.com 1.10,2013-03-22 04:58:00,
2013-03-22 01:13:00,41.9,37.0,29.93,West,267,0.0,0.0,83,0.00,,,0.00,weatherlink.com 1.10,2013-03-22 05:13:00,
2013-03-22 01:28:00,41.6,37.0,29.93,West,267,0.0,0.0,83,0.00,,,0.00,weatherlink.com 1.10,2013-03-22 05:28:00,
2013-03-22 01:43:00,40.9,36.0,29.93,West,267,0.0,1.0,84,0.00,,,0.00,weatherlink.com 1.10,2013-03-22 05:43:00,
2013-03-22 01:58:00,40.4,36.0,29.94,West,267,0.0,0.0,84,0.00,,,0.00,weatherlink.com 1.10,2013-03-22 05:58:00,
2013-03-22 02:14:00,39.8,35.0,29.93,West,267,0.0,0.0,84,0.00,,,0.00,weatherlink.com 1.10,2013-03-22 06:14:00,
2013-03-22 02:29:00,39.2,35.0,29.93,West,267,0.0,0.0,85,0.00,,,0.00,weatherlink.com 1.10,2013-03-22 06:29:00,
2013-03-22 02:44:00,38.7,35.0,29.93,West,267,0.0,0.0,86,0.00,,,0.00,weatherlink.com 1.10,2013-03-22 06:44:00,
2013-03-22 02:59:00,38.4,35.0,29.92,West,267,0.0,0.0,86,0.00,,,0.00,weatherlink.com 1.10,2013-03-22 06:59:00,
2013-03-22 03:14:00,38.0,35.0,29.92,West,267,0.0,0.0,87,0.00,,,0.00,weatherlink.com 1.10,2013-03-22 07:14:00,
2013-03-22 03:29:00,37.8,35.0,29.92,West,267,0.0,0.0,88,0.00,,,0.00,weatherlink.com 1.10,2013-03-22 07:29:00,
2013-03-22 03:44:00,37.5,34.0,29.92,West,267,0.0,0.0,88,0.00,,,0.00,weatherlink.com 1.10,2013-03-22 07:44:00,
2013-03-22 03:59:00,37.2,34.0,29.92,West,267,0.0,0.0,88,0.00,,,0.00,weatherlink.com 1.10,2013-03-22 07:59:00,
2013-03-22 04:14:00,37.0,34.0,29.92,West,267,0.0,0.0,89,0.00,,,0.00,weatherlink.com 1.10,2013-03-22 08:14:00,
2013-03-22 04:29:00,36.6,34.0,29.91,West,267,0.0,0.0,89,0.00,,,0.00,weatherlink.com 1.10,2013-03-22 08:29:00,
2013-03-22 04:44:00,36.5,34.0,29.91,West,267,0.0,0.0,89,0.00,,,0.00,weatherlink.com 1.10,2013-03-22 08:44:00,
2013-03-22 04:59:00,36.5,34.0,29.92,West,267,0.0,0.0,89,0.00,,,0.00,weatherlink.com 1.10,2013-03-22 08:59:00,
2013-03-22 05:14:00,36.6,34.0,29.92,West,267,0.0,0.0,90,0.00,,,0.00,weatherlink.com 1.10,2013-03-22 09:14:00,
2013-03-22 05:29:00,36.6,34.0,29.92,West,267,0.0,0.0,90,0.00,,,0.00,weatherlink.com 1.10,2013-03-22 09:29:00,
2013-03-22 05:44:00,36.9,35.0,29.93,West,267,0.0,0.0,91,0.00,,,0.00,weatherlink.com 1.10,2013-03-22 09:44:00,
2013-03-22 05:59:00,37.3,35.0,29.94,West,267,0.0,0.0,91,0.00,,,0.00,weatherlink.com 1.10,2013-03-22 09:59:00,
2013-03-22 06:14:00,37.4,35.0,29.94,West,267,0.0,0.0,92,0.00,,,0.00,weatherlink.com 1.10,2013-03-22 10:14:00,
2013-03-22 06:29:00,37.4,35.0,29.95,West,267,0.0,0.0,92,0.00,,,0.00,weatherlink.com 1.10,2013-03-22 10:29:00,
2013-03-22 06:44:00,37.2,35.0,29.95,West,267,0.0,0.0,91,0.00,,,0.00,weatherlink.com 1.10,2013-03-22 10:44:00,
2013-03-22 06:59:00,37.1,35.0,29.96,West,267,0.0,0.0,92,0.00,,,0.00,weatherlink.com 1.10,2013-03-22 10:59:00,
2013-03-22 07:14:00,37.0,35.0,29.96,West,267,0.0,0.0,92,0.00,,,0.00,weatherlink.com 1.10,2013-03-22 11:14:00,
2013-03-22 07:29:00,37.3,35.0,29.96,West,267,0.0,0.0,92,0.00,,,0.00,weatherlink.com 1.10,2013-03-22 11:29:00,
2013-03-22 07:44:00,38.4,37.0,29.97,West,267,0.0,0.0,93,0.00,,,0.00,weatherlink.com 1.10,2013-03-22 11:44:00,
2013-03-22 07:59:00,40.3,39.0,29.98,West,267,0.0,0.0,95,0.00,,,0.00,weatherlink.com 1.10,2013-03-22 11:59:00,
2013-03-22 08:14:00,42.7,41.0,29.98,West,267,0.0,0.0,95,0.00,,,0.00,weatherlink.com 1.10,2013-03-22 12:14:00,
2013-03-22 08:29:00,43.6,42.0,29.98,West,267,0.0,0.0,95,0.00,,,0.00,weatherlink.com 1.10,2013-03-22 12:29:00,
2013-03-22 08:44:00,47.9,47.0,29.98,NW,306,2.0,3.0,96,0.00,,,0.00,weatherlink.com 1.10,2013-03-22 12:44:00,
2013-03-22 08:59:00,52.2,49.0,29.99,NE,45,1.0,5.0,90,0.00,,,0.00,weatherlink.com 1.10,2013-03-22 12:59:00,
2013-03-22 09:14:00,55.5,50.0,30.00,North,5,4.0,8.0,81,0.00,,,0.00,weatherlink.com 1.10,2013-03-22 13:14:00,
2013-03-22 09:29:00,58.1,50.0,30.00,NE,40,4.0,7.0,75,0.00,,,0.00,weatherlink.com 1.10,2013-03-22 13:29:00,
2013-03-22 09:44:00,59.8,47.0,30.00,NE,38,5.0,9.0,64,0.00,,,0.00,weatherlink.com 1.10,2013-03-22 13:44:00,
2013-03-22 10:00:00,61.3,47.0,30.00,ENE,70,4.0,8.0,60,0.00,,,0.00,weatherlink.com 1.10,2013-03-22 14:00:00,
2013-03-22 10:15:00,62.5,47.0,30.00,NE,49,7.0,9.0,57,0.00,,,0.00,weatherlink.com 1.10,2013-03-22 14:15:00,
2013-03-22 10:30:00,63.4,46.0,30.01,ENE,67,5.0,8.0,53,0.00,,,0.00,weatherlink.com 1.10,2013-03-22 14:30:00,
2013-03-22 10:45:00,64.8,47.0,30.02,NNE,19,4.0,7.0,52,0.00,,,0.00,weatherlink.com 1.10,2013-03-22 14:45:00,
2013-03-22 11:00:00,66.7,48.0,30.01,NNE,22,6.0,7.0,51,0.00,,,0.00,weatherlink.com 1.10,2013-03-22 15:00:00,
2013-03-22 11:15:00,68.3,48.0,30.01,NE,42,0.0,8.0,48,0.00,,,0.00,weatherlink.com 1.10,2013-03-22 15:15:00,
2013-03-22 11:30:00,68.6,47.0,30.00,ENE,71,7.0,10.0,47,0.00,,,0.00,weatherlink.com 1.10,2013-03-22 15:30:00,
2013-03-22 11:45:00,70.9,48.0,29.99,ENE,64,5.0,9.0,44,0.00,,,0.00,weatherlink.com 1.10,2013-03-22 15:45:00,
2013-03-22 12:00:00,72.6,48.0,29.98,NE,46,5.0,9.0,42,0.00,,,0.00,weatherlink.com 1.10,2013-03-22 16:00:00,
2013-03-22 12:15:00,74.3,50.0,29.99,SSE,149,2.0,6.0,42,0.00,,,0.00,weatherlink.com 1.10,2013-03-22 16:15:00,
2013-03-22 12:30:00,73.9,51.0,29.99,ESE,121,1.0,3.0,45,0.00,,,0.00,weatherlink.com 1.10,2013-03-22 16:30:00,
2013-03-22 12:45:00,74.6,52.0,29.98,South,188,0.0,6.0,45,0.00,,,0.00,weatherlink.com 1.10,2013-03-22 16:45:00,
2013-03-22 13:00:00,74.0,52.0,29.98,SSE,150,1.0,9.0,47,0.00,,,0.00,weatherlink.com 1.10,2013-03-22 17:00:00,
2013-03-22 13:15:00,75.3,54.0,29.97,NNE,31,2.0,7.0,47,0.00,,,0.00,weatherlink.com 1.10,2013-03-22 17:15:00,
2013-03-22 13:30:00,76.1,55.0,29.97,NNE,27,4.0,5.0,49,0.00,,,0.00,weatherlink.com 1.10,2013-03-22 17:30:00,
2013-03-22 13:45:00,77.8,57.0,29.95,ESE,122,0.0,5.0,49,0.00,,,0.00,weatherlink.com 1.10,2013-03-22 17:45:00,
2013-03-22 14:00:00,78.9,57.0,29.95,SSW,210,4.0,6.0,47,0.00,,,0.00,weatherlink.com 1.10,2013-03-22 18:00:00,
2013-03-22 14:15:00,80.9,58.0,29.94,SSW,192,2.0,11.0,46,0.00,,,0.00,weatherlink.com 1.10,2013-03-22 18:15:00,
2013-03-22 14:30:00,80.0,59.0,29.93,South,180,2.0,8.0,48,0.00,,,0.00,weatherlink.com 1.10,2013-03-22 18:30:00,
2013-03-22 14:45:00,78.9,57.0,29.92,SSW,195,4.0,12.0,48,0.00,,,0.00,weatherlink.com 1.10,2013-03-22 18:45:00,
2013-03-22 15:00:00,79.2,58.0,29.91,South,182,2.0,8.0,48,0.00,,,0.00,weatherlink.com 1.10,2013-03-22 19:00:00,
2013-03-22 15:15:00,78.4,59.0,29.91,SSE,160,2.0,7.0,51,0.00,,,0.00,weatherlink.com 1.10,2013-03-22 19:15:00,
2013-03-22 15:30:00,76.0,59.0,29.91,SSW,204,2.0,10.0,56,0.00,,,0.00,weatherlink.com 1.10,2013-03-22 19:30:00,
2013-03-22 15:45:00,75.1,61.0,29.91,SSE,165,0.0,4.0,61,0.00,,,0.00,weatherlink.com 1.10,2013-03-22 19:45:00,
2013-03-22 16:00:00,74.3,61.0,29.91,SW,221,2.0,4.0,63,0.00,,,0.00,weatherlink.com 1.10,2013-03-22 20:00:00,
2013-03-22 16:15:00,74.9,63.0,29.89,WSW,249,0.0,3.0,66,0.00,,,0.00,weatherlink.com 1.10,2013-03-22 20:15:00,
2013-03-22 16:30:00,74.5,63.0,29.89,WSW,239,1.0,5.0,67,0.00,,,0.00,weatherlink.com 1.10,2013-03-22 20:30:00,
2013-03-22 16:45:00,73.5,63.0,29.89,South,188,1.0,4.0,69,0.00,,,0.00,weatherlink.com 1.10,2013-03-22 20:45:00,
2013-03-22 17:00:00,73.7,63.0,29.90,North,360,1.0,5.0,69,0.00,,,0.00,weatherlink.com 1.10,2013-03-22 21:00:00,
2013-03-22 17:15:00,71.9,65.0,29.91,NE,53,0.0,3.0,79,0.10,,,0.10,weatherlink.com 1.10,2013-03-22 21:15:00,
2013-03-22 17:30:00,70.3,65.0,29.91,ENE,78,0.0,0.0,84,0.12,,,0.12,weatherlink.com 1.10,2013-03-22 21:30:00,
2013-03-22 17:45:00,69.0,65.0,29.91,NNE,13,2.0,3.0,88,0.25,,,0.25,weatherlink.com 1.10,2013-03-22 21:45:00,
2013-03-22 18:00:00,67.8,65.0,29.90,ENE,59,0.0,2.0,91,0.25,,,0.25,weatherlink.com 1.10,2013-03-22 22:00:00,
2013-03-22 18:15:00,67.9,66.0,29.91,NE,55,0.0,3.0,92,0.15,,,0.25,weatherlink.com 1.10,2013-03-22 22:15:00,
2013-03-22 18:31:00,67.9,66.0,29.92,NNE,22,2.0,4.0,93,0.13,,,0.25,weatherlink.com 1.10,2013-03-22 22:31:00,
2013-03-22 18:46:00,67.3,65.0,29.92,NE,49,2.0,4.0,93,0.00,,,0.25,weatherlink.com 1.10,2013-03-22 22:46:00,
2013-03-22 19:01:00,67.0,65.0,29.93,NE,51,2.0,4.0,93,0.00,,,0.25,weatherlink.com 1.10,2013-03-22 23:01:00,
2013-03-22 19:16:00,66.7,65.0,29.92,NE,45,4.0,5.0,94,0.00,,,0.25,weatherlink.com 1.10,2013-03-22 23:16:00,
2013-03-22 19:31:00,66.3,64.0,29.92,East,81,3.0,7.0,93,0.00,,,0.25,weatherlink.com 1.10,2013-03-22 23:31:00,
2013-03-22 19:46:00,66.2,65.0,29.92,ENE,62,2.0,6.0,94,0.00,,,0.25,weatherlink.com 1.10,2013-03-22 23:46:00,
2013-03-22 20:01:00,66.1,64.0,29.93,NE,53,3.0,4.0,94,0.00,,,0.25,weatherlink.com 1.10,2013-03-23 00:01:00,
2013-03-22 20:31:00,66.2,65.0,29.94,ENE,59,2.0,5.0,94,0.00,,,0.25,weatherlink.com 1.10,2013-03-23 00:31:00,
2013-03-22 21:46:00,64.0,63.0,29.96,East,83,5.0,9.0,95,0.20,,,0.45,weatherlink.com 1.10,2013-03-23 01:46:00,
2013-03-22 22:01:00,63.9,63.0,29.97,NE,51,2.0,2.0,95,0.21,,,0.47,weatherlink.com 1.10,2013-03-23 02:01:00,
2013-03-22 22:16:00,63.6,62.0,29.98,NNE,22,5.0,9.0,95,0.23,,,0.50,weatherlink.com 1.10,2013-03-23 02:16:00,
2013-03-22 22:31:00,63.0,62.0,29.97,ENE,77,2.0,11.0,96,0.09,,,0.52,weatherlink.com 1.10,2013-03-23 02:31:00,
2013-03-22 22:46:00,63.1,62.0,29.97,NE,50,1.0,7.0,96,0.07,,,0.52,weatherlink.com 1.10,2013-03-23 02:46:00,
2013-03-22 23:01:00,63.4,62.0,29.98,NE,44,3.0,5.0,96,0.19,,,0.66,weatherlink.com 1.10,2013-03-23 03:01:00,
2013-03-22 23:16:00,63.7,63.0,29.99,NNE,14,0.0,5.0,96,0.38,,,0.88,weatherlink.com 1.10,2013-03-23 03:16:00,
2013-03-22 23:31:00,63.5,62.0,29.98,NE,48,4.0,6.0,96,0.89,,,1.41,weatherlink.com 1.10,2013-03-23 03:31:00,
2013-03-22 23:46:00,63.4,63.0,29.98,ENE,61,0.0,3.0,97,1.25,,,1.77,weatherlink.com 1.10,2013-03-23 03:46:00,